createdAt,value
2022-08-03T00:01:38.697Z,7.53
2022-08-03T00:04:06.671Z,6.90
2022-08-03T00:06:37.129Z,7.75
2022-08-03T00:09:05.907Z,9.35
2022-08-03T00:11:33.333Z,10.77
2022-08-03T00:14:01.451Z,10.93
2022-08-03T00:16:28.770Z,11.25
2022-08-03T00:18:56.102Z,11.63
2022-08-03T00:21:23.279Z,9.23
2022-08-03T00:23:50.754Z,10.57
2022-08-03T00:26:20.996Z,9.02
2022-08-03T00:28:49.029Z,9.57
2022-08-03T00:31:16.347Z,11.98
2022-08-03T00:33:59.264Z,7.72
2022-08-03T00:36:30.574Z,11.50
2022-08-03T00:38:57.742Z,10.68
2022-08-03T00:41:24.980Z,10.60
2022-08-03T00:43:52.345Z,8.98
2022-08-03T00:46:22.604Z,10.02
2022-08-03T00:48:50.622Z,9.45
2022-08-03T00:51:19.290Z,10.55
2022-08-03T00:53:46.651Z,8.40
2022-08-03T00:56:17.820Z,11.13
2022-08-03T00:58:46.567Z,8.57
2022-08-03T01:01:15.417Z,8.10
2022-08-03T01:03:42.794Z,10.85
2022-08-03T01:06:13.575Z,8.77
2022-08-03T01:09:14.165Z,9.13
2022-08-03T01:12:00.106Z,7.93
2022-08-03T01:14:44.537Z,8.18
2022-08-03T01:17:25.169Z,12.38
2022-08-03T01:20:14.543Z,8.45
2022-08-03T01:23:00.548Z,8.20
2022-08-03T01:26:06.247Z,9.80
2022-08-03T01:28:58.395Z,8.20
2022-08-03T01:33:02.784Z,9.68
2022-08-03T01:34:56.450Z,8.25
2022-08-03T01:37:32.080Z,8.10
2022-08-03T01:40:02.389Z,12.68
2022-08-03T01:42:31.700Z,12.05
2022-08-03T01:45:01.271Z,11.45
2022-08-03T01:47:30.815Z,8.68
2022-08-03T01:49:59.286Z,8.07
2022-08-03T01:52:27.855Z,7.85
2022-08-03T01:54:55.879Z,13.05
2022-08-03T01:57:25.512Z,9.40
2022-08-03T01:59:55.937Z,11.35
2022-08-03T02:02:33.138Z,9.80
2022-08-03T02:05:04.314Z,7.80
2022-08-03T02:07:33.144Z,9.20
2022-08-03T02:10:03.009Z,9.45
2022-08-03T02:12:33.901Z,8.10
2022-08-03T02:15:23.225Z,7.55
2022-08-03T02:17:50.990Z,9.30
2022-08-03T02:20:19.685Z,7.50
2022-08-03T02:22:47.362Z,7.70
2022-08-03T02:25:16.272Z,7.50
2022-08-03T02:27:49.425Z,8.68
2022-08-03T02:30:17.168Z,7.43
2022-08-03T02:32:51.811Z,7.38
2022-08-03T02:35:23.466Z,7.57
2022-08-03T02:37:56.239Z,7.43
2022-08-03T02:40:28.239Z,9.48
2022-08-03T02:43:03.870Z,13.85
2022-08-03T02:45:33.071Z,8.85
2022-08-03T02:48:03.238Z,9.90
2022-08-03T02:50:31.938Z,9.35
2022-08-03T02:53:01.806Z,9.45
2022-08-03T02:55:30.737Z,12.48
2022-08-03T02:58:01.482Z,11.57
2022-08-03T03:00:31.947Z,11.27
2022-08-03T03:03:02.905Z,11.55
2022-08-03T03:05:55.339Z,9.27
2022-08-03T03:08:26.213Z,8.70
2022-08-03T03:10:58.455Z,8.80
2022-08-03T03:13:28.468Z,9.57
2022-08-03T03:15:59.673Z,9.05
2022-08-03T03:18:29.207Z,8.43
2022-08-03T03:20:58.143Z,7.35
2022-08-03T03:23:26.363Z,7.50
2022-08-03T03:25:56.182Z,7.53
2022-08-03T03:28:25.189Z,7.72
2022-08-03T03:30:53.478Z,11.02
2022-08-03T03:33:22.846Z,8.07
2022-08-03T03:35:51.948Z,9.02
2022-08-03T03:38:20.003Z,7.25
2022-08-03T03:40:47.759Z,7.43
2022-08-03T03:43:15.268Z,7.00
2022-08-03T03:45:43.356Z,8.18
2022-08-03T03:48:11.254Z,7.05
2022-08-03T03:50:41.082Z,6.70
2022-08-03T03:53:13.758Z,6.43
2022-08-03T03:55:57.907Z,7.50
2022-08-03T03:58:28.185Z,9.80
2022-08-03T04:00:55.455Z,10.57
2022-08-03T04:03:23.457Z,8.05
2022-08-03T04:06:09.711Z,7.22
2022-08-03T04:08:55.204Z,8.23
2022-08-03T04:12:01.258Z,9.30
2022-08-03T04:14:35.384Z,7.78
2022-08-03T04:19:38.770Z,6.97
2022-08-03T04:22:11.434Z,7.25
2022-08-03T04:24:43.451Z,10.63
2022-08-03T04:27:14.525Z,10.23
2022-08-03T04:29:48.441Z,12.20
2022-08-03T04:32:17.828Z,7.47
2022-08-03T04:34:46.208Z,7.40
2022-08-03T04:37:25.592Z,6.80
2022-08-03T04:39:57.575Z,6.32
2022-08-03T04:42:26.035Z,7.57
2022-08-03T04:45:00.844Z,7.20
2022-08-03T04:47:34.922Z,6.63
2022-08-03T04:50:05.597Z,6.03
2022-08-03T04:52:37.143Z,7.30
2022-08-03T04:55:04.788Z,8.85
2022-08-03T04:57:32.159Z,7.05
2022-08-03T05:00:02.996Z,6.47
2022-08-03T05:02:35.177Z,7.03
2022-08-03T05:05:02.489Z,6.22
2022-08-03T05:07:35.953Z,6.80
2022-08-03T05:10:10.167Z,6.90
2022-08-03T05:12:46.733Z,8.43
2022-08-03T05:15:15.404Z,6.82
2022-08-03T05:17:42.963Z,6.65
2022-08-03T05:20:11.416Z,6.30
2022-08-03T05:22:38.851Z,6.28
2022-08-03T05:25:06.708Z,6.85
2022-08-03T05:27:33.895Z,8.07
2022-08-03T05:30:30.810Z,6.53
2022-08-03T05:32:49.612Z,8.80
2022-08-03T05:36:02.728Z,6.68
2022-08-03T05:38:04.067Z,7.22
2022-08-03T05:40:33.212Z,6.28
2022-08-03T05:43:01.946Z,6.30
2022-08-03T05:45:29.341Z,6.75
2022-08-03T05:47:56.718Z,6.93
2022-08-03T05:50:24.254Z,6.95
2022-08-03T05:52:51.662Z,6.20
2022-08-03T05:55:19.255Z,6.20
2022-08-03T05:57:48.146Z,6.57
2022-08-03T06:00:17.284Z,8.60
2022-08-03T06:02:45.590Z,7.18
2022-08-03T06:05:13.129Z,7.80
2022-08-03T06:07:40.424Z,6.32
2022-08-03T06:10:37.024Z,6.78
2022-08-03T06:12:57.640Z,6.35
2022-08-03T06:15:25.063Z,6.10
2022-08-03T06:17:52.610Z,5.97
2022-08-03T06:20:21.263Z,6.18
2022-08-03T06:23:00.465Z,7.80
2022-08-03T06:27:56.553Z,6.55
2022-08-03T06:30:23.863Z,7.10
2022-08-03T06:32:52.145Z,6.57
2022-08-03T06:35:20.614Z,7.15
2022-08-03T06:37:52.120Z,6.50
2022-08-03T06:40:29.422Z,7.38
2022-08-03T06:42:59.168Z,7.10
2022-08-03T06:45:31.991Z,6.97
2022-08-03T06:48:06.848Z,7.82
2022-08-03T06:50:35.901Z,7.03
2022-08-03T06:53:04.338Z,7.55
2022-08-03T06:55:32.619Z,6.82
2022-08-03T06:58:03.203Z,7.30
2022-08-03T07:00:31.183Z,7.18
2022-08-03T07:02:58.693Z,7.43
2022-08-03T07:05:26.018Z,8.25
2022-08-03T07:07:57.904Z,9.40
2022-08-03T07:10:25.509Z,9.10
2022-08-03T07:12:56.568Z,8.90
2022-08-03T07:15:54.560Z,9.02
2022-08-03T07:18:12.603Z,8.73
2022-08-03T07:20:40.337Z,9.07
2022-08-03T07:23:07.522Z,8.48
2022-08-03T07:25:34.725Z,9.25
2022-08-03T07:28:03.644Z,8.55
2022-08-03T07:30:31.061Z,8.60
2022-08-03T07:32:58.333Z,7.95
2022-08-03T07:35:26.539Z,9.40
2022-08-03T07:37:55.132Z,8.60
2022-08-03T07:40:23.091Z,8.07
2022-08-03T07:42:53.497Z,8.50
2022-08-03T07:45:23.618Z,9.00
2022-08-03T07:47:53.222Z,8.90
2022-08-03T07:50:23.043Z,8.73
2022-08-03T07:52:52.303Z,8.40
2022-08-03T07:55:22.007Z,8.70
2022-08-03T07:58:08.152Z,9.10
2022-08-03T08:00:36.421Z,8.57
2022-08-03T08:03:04.887Z,8.43
2022-08-03T08:05:32.483Z,8.60
2022-08-03T08:08:03.342Z,8.63
2022-08-03T08:10:31.020Z,8.07
2022-08-03T08:12:58.740Z,8.93
2022-08-03T08:15:26.129Z,8.40
2022-08-03T08:17:55.723Z,8.23
2022-08-03T08:20:28.704Z,8.40
2022-08-03T08:23:09.588Z,8.02
2022-08-03T08:25:53.292Z,8.65
2022-08-03T08:28:31.016Z,8.40
2022-08-03T08:31:01.191Z,8.30
2022-08-03T08:33:37.635Z,8.63
2022-08-03T08:36:15.080Z,8.27
2022-08-03T08:38:45.144Z,8.67
2022-08-03T08:41:14.752Z,9.05
2022-08-03T08:43:42.614Z,9.18
2022-08-03T08:46:23.628Z,8.60
2022-08-03T08:48:52.962Z,8.65
2022-08-03T08:51:21.854Z,8.40
2022-08-03T08:53:54.000Z,8.50
2022-08-03T08:56:25.893Z,9.63
2022-08-03T08:58:59.378Z,8.20
2022-08-03T09:01:27.491Z,8.68
2022-08-03T09:03:55.378Z,8.10
2022-08-03T09:06:23.600Z,8.20
2022-08-03T09:08:51.447Z,7.82
2022-08-03T09:11:51.784Z,8.57
2022-08-03T09:14:36.677Z,8.75
2022-08-03T09:17:04.168Z,7.88
2022-08-03T09:19:33.067Z,8.68
2022-08-03T09:22:18.752Z,8.60
2022-08-03T09:25:21.700Z,7.72
2022-08-03T09:27:46.605Z,8.23
2022-08-03T09:30:33.175Z,8.63
2022-08-03T09:33:08.307Z,8.32
2022-08-03T09:35:57.778Z,8.10
2022-08-03T09:38:27.638Z,8.20
2022-08-03T09:40:59.836Z,8.35
2022-08-03T09:43:29.057Z,8.00
2022-08-03T09:46:04.324Z,8.23
2022-08-03T09:48:35.148Z,8.15
2022-08-03T09:51:13.627Z,7.90
2022-08-03T09:53:59.696Z,8.02
2022-08-03T09:56:45.352Z,7.47
2022-08-03T09:59:14.611Z,7.90
2022-08-03T10:01:42.750Z,8.00
2022-08-03T10:04:15.279Z,7.90
2022-08-03T10:06:45.425Z,8.20
2022-08-03T10:09:16.718Z,7.60
2022-08-03T10:11:47.020Z,7.78
2022-08-03T10:14:20.289Z,7.43
2022-08-03T10:16:48.374Z,8.15
2022-08-03T10:19:16.705Z,7.88
2022-08-03T10:21:59.238Z,7.57
2022-08-03T10:24:29.704Z,7.65
2022-08-03T10:27:02.671Z,7.65
2022-08-03T10:29:34.084Z,7.60
2022-08-03T10:32:05.923Z,7.07
2022-08-03T10:34:42.602Z,6.82
2022-08-03T10:37:14.352Z,7.80
2022-08-03T10:39:53.639Z,7.50
2022-08-03T10:42:27.353Z,7.45
2022-08-03T10:45:13.493Z,7.53
2022-08-03T10:47:41.813Z,7.25
2022-08-03T10:50:10.407Z,7.70
2022-08-03T10:52:54.627Z,7.38
2022-08-03T10:58:37.246Z,7.65
2022-08-03T11:01:12.582Z,7.55
2022-08-03T11:03:55.204Z,7.05
2022-08-03T11:06:25.000Z,7.55
2022-08-03T11:09:12.902Z,7.35
2022-08-03T11:11:43.527Z,7.30
2022-08-03T11:14:14.898Z,7.20
2022-08-03T11:16:48.428Z,7.40
2022-08-03T11:19:24.301Z,7.03
2022-08-03T11:21:56.530Z,7.18
2022-08-03T11:24:42.797Z,7.47
2022-08-03T11:27:19.571Z,6.97
2022-08-03T11:29:57.671Z,6.95
2022-08-03T11:32:41.278Z,7.00
2022-08-03T11:35:35.663Z,6.60
2022-08-03T11:38:05.658Z,6.68
2022-08-03T11:40:37.399Z,6.95
2022-08-03T11:43:10.419Z,7.22
2022-08-03T11:45:38.350Z,7.63
2022-08-03T11:48:17.171Z,7.20
2022-08-03T11:50:45.685Z,7.30
2022-08-03T11:53:18.574Z,6.70
2022-08-03T11:55:50.622Z,7.17
2022-08-03T11:59:15.398Z,6.72
2022-08-03T12:01:21.227Z,7.40
2022-08-03T12:03:50.959Z,7.30
2022-08-03T12:06:19.479Z,6.93
2022-08-03T12:08:47.060Z,7.07
2022-08-03T12:11:16.307Z,6.80
2022-08-03T12:14:44.209Z,6.43
2022-08-03T12:16:36.870Z,7.10
2022-08-03T12:19:07.074Z,7.53
2022-08-03T12:21:34.467Z,7.88
2022-08-03T12:24:04.947Z,7.45
2022-08-03T12:26:56.802Z,8.57
2022-08-03T12:29:26.774Z,7.32
2022-08-03T12:31:56.070Z,6.78
2022-08-03T12:34:23.601Z,7.60
2022-08-03T12:36:53.152Z,7.28
2022-08-03T12:39:24.452Z,7.00
2022-08-03T12:41:55.976Z,7.35
2022-08-03T12:44:31.486Z,7.47
2022-08-03T12:46:59.919Z,7.72
2022-08-03T12:49:30.487Z,7.47
2022-08-03T12:52:05.309Z,8.18
2022-08-03T12:54:36.242Z,9.10
2022-08-03T12:57:16.350Z,8.90
2022-08-03T12:59:53.510Z,8.50
2022-08-03T13:02:24.085Z,7.78
2022-08-03T13:04:54.514Z,9.13
2022-08-03T13:07:23.175Z,9.55
2022-08-03T13:09:54.641Z,9.02
2022-08-03T13:12:24.553Z,8.10
2022-08-03T13:14:57.397Z,8.73
2022-08-03T13:17:25.858Z,8.73
2022-08-03T13:19:53.689Z,8.52
2022-08-03T13:22:23.493Z,8.77
2022-08-03T13:24:53.825Z,7.95
2022-08-03T13:28:10.976Z,8.20
2022-08-03T13:30:09.239Z,7.80
2022-08-03T13:32:36.601Z,7.47
2022-08-03T13:35:04.779Z,7.90
2022-08-03T13:37:32.616Z,7.78
2022-08-03T13:40:02.754Z,7.68
2022-08-03T13:42:32.611Z,8.35
2022-08-03T13:45:01.255Z,8.10
2022-08-03T13:47:31.533Z,7.55
2022-08-03T13:50:00.050Z,7.97
2022-08-03T13:52:33.797Z,7.82
2022-08-03T13:55:05.719Z,7.53
2022-08-03T13:58:11.502Z,7.55
2022-08-03T14:00:27.751Z,8.82
2022-08-03T14:03:04.028Z,7.80
2022-08-03T14:05:33.597Z,8.20
2022-08-03T14:08:03.104Z,7.88
2022-08-03T14:10:37.656Z,8.27
2022-08-03T14:13:06.401Z,7.50
2022-08-03T14:15:38.035Z,7.80
2022-08-03T14:18:15.633Z,7.90
2022-08-03T14:20:49.015Z,6.88
2022-08-03T14:23:19.423Z,7.15
2022-08-03T14:25:51.939Z,7.30
2022-08-03T14:30:54.948Z,7.60
2022-08-03T14:33:23.630Z,7.07
2022-08-03T14:35:52.270Z,7.00
2022-08-03T14:38:20.399Z,6.75
2022-08-03T14:40:48.175Z,7.10
2022-08-03T14:43:18.170Z,7.85
2022-08-03T14:45:45.535Z,7.47
2022-08-03T14:50:26.520Z,7.68
2022-08-03T14:51:00.421Z,7.63
2022-08-03T14:53:29.219Z,6.95
2022-08-03T14:55:56.710Z,7.63
2022-08-03T14:58:27.716Z,7.10
2022-08-03T15:00:56.065Z,7.40
2022-08-03T15:03:25.199Z,6.90
2022-08-03T15:05:54.401Z,7.53
2022-08-03T15:08:23.460Z,7.03
2022-08-03T15:10:50.964Z,6.93
2022-08-03T15:13:20.780Z,6.68
2022-08-03T15:15:48.588Z,6.68
2022-08-03T15:18:16.108Z,7.90
2022-08-03T15:20:45.508Z,7.82
2022-08-03T15:23:15.349Z,7.13
2022-08-03T15:26:28.962Z,7.20
2022-08-03T15:28:32.072Z,7.47
2022-08-03T15:30:59.284Z,7.60
2022-08-03T15:33:26.535Z,7.03
2022-08-03T15:35:54.245Z,7.90
2022-08-03T15:38:26.176Z,7.90
2022-08-03T15:40:55.339Z,7.00
2022-08-03T15:43:23.503Z,6.78
2022-08-03T15:46:12.637Z,6.70
2022-08-03T15:48:39.858Z,6.93
2022-08-03T15:51:09.573Z,6.70
2022-08-03T15:53:37.250Z,7.07
2022-08-03T15:56:10.640Z,7.20
2022-08-03T15:59:04.855Z,6.88
2022-08-03T16:01:28.468Z,6.80
2022-08-03T16:03:55.632Z,7.05
2022-08-03T16:06:35.509Z,7.07
2022-08-03T16:09:24.138Z,6.82
2022-08-03T16:11:53.816Z,7.22
2022-08-03T16:14:32.256Z,6.70
2022-08-03T16:17:04.204Z,6.45
2022-08-03T16:19:31.672Z,7.00
2022-08-03T16:21:59.437Z,7.30
2022-08-03T16:24:28.485Z,7.70
2022-08-03T16:26:56.566Z,7.15
2022-08-03T16:29:24.240Z,7.50
2022-08-03T16:31:52.793Z,7.45
2022-08-03T16:34:20.902Z,7.03
2022-08-03T16:36:48.272Z,7.18
2022-08-03T16:39:15.705Z,7.32
2022-08-03T16:41:54.303Z,6.68
2022-08-03T16:44:30.799Z,7.15
2022-08-03T16:46:59.315Z,6.70
2022-08-03T16:49:55.395Z,7.20
2022-08-03T16:52:16.734Z,7.57
2022-08-03T16:54:53.276Z,6.82
2022-08-03T16:57:56.461Z,6.30
2022-08-03T17:00:10.651Z,6.05
2022-08-03T17:02:41.155Z,5.45
2022-08-03T17:05:15.844Z,5.30
2022-08-03T17:07:47.008Z,4.90
2022-08-03T17:10:22.037Z,4.05
2022-08-03T17:12:54.887Z,5.15
2022-08-03T17:15:51.709Z,4.22
2022-08-03T17:18:14.467Z,3.38
2022-08-03T17:20:45.079Z,3.40
2022-08-03T17:23:40.020Z,3.90
2022-08-03T17:26:21.142Z,3.70
2022-08-03T17:28:57.463Z,3.45
2022-08-03T17:31:32.123Z,3.80
2022-08-03T17:34:13.977Z,4.60
2022-08-03T17:37:03.225Z,4.32
2022-08-03T17:39:55.635Z,4.43
2022-08-03T17:42:29.444Z,3.67
2022-08-03T17:45:02.358Z,3.38
2022-08-03T17:47:42.165Z,4.13
2022-08-03T17:50:24.342Z,4.10
2022-08-03T17:53:07.439Z,4.03
2022-08-03T17:55:55.230Z,3.50
2022-08-03T17:58:39.593Z,3.40
2022-08-03T18:02:01.825Z,3.80
2022-08-03T18:04:30.019Z,3.72
2022-08-03T18:07:11.266Z,3.63
2022-08-03T18:10:03.350Z,3.28
2022-08-03T18:12:41.724Z,4.22
2022-08-03T18:15:21.386Z,3.67
2022-08-03T18:17:58.110Z,3.88
2022-08-03T18:20:41.076Z,3.63
2022-08-03T18:23:24.983Z,3.75
2022-08-03T18:26:01.434Z,4.05
2022-08-03T18:28:29.802Z,3.90
2022-08-03T18:30:58.256Z,4.20
2022-08-03T18:34:18.954Z,4.05
2022-08-03T18:36:21.613Z,4.22
2022-08-03T18:38:52.148Z,4.80
2022-08-03T18:41:33.370Z,4.63
2022-08-03T18:44:08.719Z,5.60
2022-08-03T18:47:15.981Z,5.53
2022-08-03T18:50:05.877Z,5.00
2022-08-03T18:52:53.141Z,5.55
2022-08-03T18:55:33.502Z,5.15
2022-08-03T18:58:34.459Z,5.65
2022-08-03T19:01:57.552Z,5.97
2022-08-03T19:04:12.198Z,6.28
2022-08-03T19:09:40.852Z,5.32
2022-08-03T19:12:30.662Z,6.22
2022-08-03T19:15:12.747Z,4.82
2022-08-03T19:17:53.233Z,5.85
2022-08-03T19:20:28.209Z,5.53
2022-08-03T19:22:57.952Z,4.80
2022-08-03T19:25:34.246Z,5.18
2022-08-03T19:28:07.229Z,5.20
2022-08-03T19:30:39.043Z,5.32
2022-08-03T19:33:08.343Z,5.25
2022-08-03T19:35:51.720Z,5.18
2022-08-03T19:38:29.210Z,4.80
2022-08-03T19:41:01.263Z,5.38
2022-08-03T19:43:52.627Z,4.60
2022-08-03T19:46:30.571Z,4.93
2022-08-03T19:49:20.123Z,4.93
2022-08-03T19:51:58.599Z,5.07
2022-08-03T19:54:53.396Z,4.82
2022-08-03T19:57:24.817Z,4.93
2022-08-03T19:59:53.930Z,4.70
2022-08-03T20:02:26.836Z,4.00
2022-08-03T20:04:57.285Z,4.53
2022-08-03T20:07:26.128Z,4.50
2022-08-03T20:09:56.459Z,4.75
2022-08-03T20:12:29.108Z,4.88
2022-08-03T20:14:58.919Z,4.80
2022-08-03T20:17:57.143Z,5.20
2022-08-03T20:20:23.463Z,5.78
2022-08-03T20:22:57.809Z,4.93
2022-08-03T20:25:57.235Z,4.70
2022-08-03T20:28:34.202Z,4.97
2022-08-03T20:31:01.950Z,4.78
2022-08-03T20:36:20.441Z,4.63
2022-08-03T20:38:48.442Z,4.97
2022-08-03T20:41:17.693Z,5.25
2022-08-03T20:43:46.139Z,4.90
2022-08-03T20:46:30.861Z,5.35
2022-08-03T20:49:04.166Z,5.10
2022-08-03T20:51:53.086Z,5.32
2022-08-03T20:54:29.902Z,5.10
2022-08-03T20:57:04.190Z,6.18
2022-08-03T20:59:50.563Z,5.38
2022-08-03T21:02:29.483Z,6.05
2022-08-03T21:05:03.491Z,6.20
2022-08-03T21:08:05.111Z,6.65
2022-08-03T21:10:39.028Z,6.57
2022-08-03T21:13:10.648Z,5.95
2022-08-03T21:13:12.351Z,4.40
2022-08-03T21:16:12.730Z,6.18
2022-08-03T21:18:46.488Z,6.13
2022-08-03T21:21:16.497Z,6.55
2022-08-03T21:23:49.077Z,5.97
2022-08-03T21:26:22.245Z,6.40
2022-08-03T21:28:51.746Z,5.88
2022-08-03T21:31:25.134Z,6.40
2022-08-03T21:33:59.754Z,6.30
2022-08-03T21:36:29.327Z,6.75
2022-08-03T21:38:57.700Z,6.90
2022-08-03T21:41:27.481Z,5.85
2022-08-03T21:43:54.743Z,6.30
2022-08-03T21:46:23.406Z,5.90
2022-08-03T21:50:04.785Z,6.35
2022-08-03T21:51:49.685Z,6.03
2022-08-03T21:54:20.405Z,5.90
2022-08-03T21:56:48.727Z,5.93
2022-08-03T21:59:20.342Z,6.05
2022-08-03T22:01:51.319Z,6.07
2022-08-03T22:04:45.851Z,6.32
2022-08-03T22:07:10.734Z,6.43
2022-08-03T22:09:38.116Z,6.55
2022-08-03T22:12:05.824Z,7.03
2022-08-03T22:14:33.862Z,6.75
2022-08-03T22:17:03.337Z,6.57
2022-08-03T22:19:33.888Z,7.03
2022-08-03T22:22:05.032Z,6.65
2022-08-03T22:24:35.380Z,6.60
2022-08-03T22:27:21.961Z,6.65
2022-08-03T22:29:50.387Z,7.60
2022-08-03T22:32:17.656Z,6.97
2022-08-03T22:34:47.558Z,6.75
2022-08-03T22:37:18.721Z,7.18
2022-08-03T22:39:46.047Z,6.65
2022-08-03T22:42:14.165Z,6.82
2022-08-03T22:44:41.429Z,6.97
2022-08-03T22:47:09.936Z,7.07
2022-08-03T22:49:38.101Z,7.47
2022-08-03T22:52:07.597Z,7.20
2022-08-03T22:54:36.265Z,7.10
2022-08-03T22:57:05.324Z,6.65
2022-08-03T22:59:41.407Z,7.35
2022-08-03T23:02:21.685Z,7.22
2022-08-03T23:04:52.859Z,7.55
2022-08-03T23:07:27.732Z,7.78
2022-08-03T23:09:56.930Z,7.43
2022-08-03T23:12:24.743Z,7.18
2022-08-03T23:14:56.817Z,7.43
2022-08-03T23:17:26.120Z,7.57
2022-08-03T23:19:55.729Z,8.20
2022-08-03T23:22:29.297Z,8.48
2022-08-03T23:24:59.662Z,8.15
2022-08-03T23:27:27.956Z,7.82
2022-08-03T23:29:57.728Z,8.57
2022-08-03T23:32:29.991Z,7.78
2022-08-03T23:35:20.744Z,8.32
2022-08-03T23:38:04.257Z,8.65
2022-08-03T23:40:37.176Z,8.20
2022-08-03T23:43:05.765Z,8.40
2022-08-03T23:45:36.390Z,9.20
2022-08-03T23:48:03.681Z,8.88
2022-08-03T23:50:43.753Z,8.73
2022-08-03T23:53:21.731Z,8.40
2022-08-03T23:56:01.153Z,8.88
2022-08-03T23:58:52.142Z,9.05
